ADDS METAR Data INFO
IDs: Format: Raw Decoded Include TAF

Data at: 0402 UTC 23 Sep 2017

KACT 230351Z 14010KT 10SM CLR 27/19 A2992 RMK AO2 SLP124 T02720194
KACT 230251Z 14007KT 10SM CLR 28/19 A2991 RMK AO2 SLP119 T02780194 53008
KACT 230151Z 13008KT 10SM CLR 28/18 A2990 RMK AO2 SLP118 T02830183
KACT 230051Z 15009KT 10SM CLR 30/18 A2989 RMK AO2 SLP112 T03000183
KACT 222351Z 15012KT 10SM CLR 32/18 A2988 RMK AO2 SLP111 T03170178 10350 20311 55005
KACT 222251Z COR 12015G20 10SM FEW060 33/19 A2988RMK AO2 SLP109 T03330183
KACT 222151Z 17013KT 10SM SCT060 34/18 A2989 RMK AO2 SLP113 T03440183
KACT 222051Z 17010KT 10SM SCT055 34/18 A2990 RMK AO2 SLP117 T03390183 56023
KACT 221951Z COR 14012G18KT 10SM SCT055 34/20 A2992 RMK AO2 SLP124 T03390200
KACT 221851Z 14011KT 10SM FEW055 33/21 A2994 RMK AO2 SLP132 T03330206
KACT 221751Z 17011KT 10SM BKN041 32/22 A2997 RMK AO2 SLP140 T03220217 10322 20244 58007
KACT 221651Z 17008KT 10SM BKN034 29/22 A2998 RMK AO2 SLP144 T02940217
KACT 221551Z 18008KT 10SM BKN023 28/22 A2999 RMK AO2 SLP148 T02830222
KACT 221451Z 17008KT 6SM HZ BKN014 BKN023 27/23 A2999 RMK AO2 SLP146 T02670228 51012
KACT 221434Z 17009KT 10SM BKN010 BKN016 OVC023 26/23 A2999 RMK AO2 CIG 008V012 T02610233
KACT 221351Z 15009KT 9SM OVC008 25/23 A2998 RMK AO2 SLP144 T02500228
KACT 221251Z 17010KT 10SM OVC011 24/23 A2997 RMK AO2 SLP140 T02440228
KACT 221226Z 17007KT 10SM OVC011 24/22 A2996 RMK AO2 T02440222
KACT 221151Z 17007KT 10SM OVC009 24/23 A2995 RMK AO2 SLP135 T02440228 10244 20239 53003 $
KACT 221051Z 19009KT 10SM OVC009 24/22 A2995 RMK AO2 SLP132 T02440222 $
KACT 220951Z 18010KT 9SM OVC009 24/22 A2994 RMK AO2 SLP130 T02440222 $
KACT 220851Z 18011KT 10SM OVC009 24/22 A2994 RMK AO2 SLP131 T02440222 51001 $
KACT 220751Z 18011KT 10SM OVC009 24/22 A2995 RMK AO2 SLP131 T02390217 $
KACT 220744Z 18013KT 10SM OVC009 24/22 A2995 RMK AO2 T02390217 $
KACT 220725Z 16011KT 10SM BKN010 24/22 A2995 RMK AO2 CIG 009V012 T02390217 $
KACT 220651Z 17010KT 10SM FEW012 24/22 A2995 RMK AO2 SLP132 T02390217 $
KACT 220551Z 16011KT 10SM CLR 24/22 A2994 RMK AO2 SLP131 T02440217 10317 20244 403720244 50005 $
KACT 220451Z 14008KT 10SM CLR 25/21 A2994 RMK AO2 SLP132 T02500211 $
KACT 220351Z 16013KT 10SM CLR 26/22 A2993 RMK AO2 SLP127 T02610217 $
KACT 220251Z 16011KT 10SM CLR 27/22 A2993 RMK AO2 SLP126 T02670217 51022 $
KACT 220151Z 15015G21KT 10SM CLR 28/22 A2992 RMK AO2 SLP122 T02780217 $
KACT 220051Z 14014G19KT 10SM CLR 29/22 A2988 RMK AO2 SLP110 T02940217 $
KACT 212351Z 15018KT 10SM CLR 32/21 A2986 RMK AO2 SLP103 T03170211 10372 20317 55002 $
KACT 212251Z 15013KT 10SM CLR 34/19 A2985 RMK AO2 SLP100 T03440194 $
KACT 212151Z 13013G20KT 10SM FEW060 36/19 A2985 RMK AO2 SLP099 T03610189 $
KACT 212051Z COR 14012G21KT 10SM SCT065 37/19 A2987 RMK AO2 SLP104 T03670194 56025 $
KACT 211951Z 16009KT 10SM FEW055 36/20 A2989 RMK AO2 SLP112 T03560200 $
KACT 211851Z 18011KT 10SM FEW049 36/21 A2991 RMK AO2 SLP121 T03560206 $
KACT 211751Z 18011KT 10SM CLR 33/22 A2994 RMK AO2 SLP130 T03330217 10339 20256 58011 $
KACT 211651Z 17011KT 10SM FEW038 32/22 A2997 RMK AO2 SLP138 T03170222 $